Time;durP1;ratioP1;P1;durP2;ratioP2;P2;SDS_P1;SDS_P2;PMS_P1;PMS_P2;Temp;Humidity;BMP_temperature;BMP_pressure;BME280_temperature;BME280_humidity;BME280_pressure;Samples;Min_cycle;Max_cycle;Signal;HPM_P1;HPM_P2
2023/01/09 00:01:41;;;;;;;10.75;7.28;;;21.20;99.90;;;;;;5034230;28;20101;-47
2023/01/09 00:04:06;;;;;;;11.18;6.38;;;21.20;99.90;;;;;;5031881;28;20045;-47
2023/01/09 00:06:32;;;;;;;12.45;7.32;;;21.20;99.90;;;;;;5034468;28;20037;-48
2023/01/09 00:08:58;;;;;;;12.27;7.10;;;21.20;99.90;;;;;;5049541;28;20037;-48
2023/01/09 00:11:24;;;;;;;12.43;7.18;;;21.20;99.90;;;;;;5033873;28;20462;-48
2023/01/09 00:13:50;;;;;;;11.48;7.43;;;21.20;99.90;;;;;;5033845;28;20033;-47
2023/01/09 00:16:16;;;;;;;10.45;7.00;;;21.20;99.90;;;;;;5033723;28;20068;-47
2023/01/09 00:18:42;;;;;;;10.20;6.80;;;21.20;99.90;;;;;;5033912;28;20026;-48
2023/01/09 00:21:09;;;;;;;10.88;7.45;;;21.20;99.90;;;;;;5033793;28;20083;-48
2023/01/09 00:23:36;;;;;;;10.23;7.05;;;21.20;99.90;;;;;;5033906;28;20028;-48
2023/01/09 00:26:10;;;;;;;11.80;7.40;;;21.20;99.90;;;;;;5033906;28;20028;-48
2023/01/09 00:28:36;;;;;;;11.27;7.65;;;21.10;99.90;;;;;;5033692;28;20033;-48
2023/01/09 00:31:04;;;;;;;12.35;8.45;;;21.10;99.90;;;;;;5033778;28;20060;-47
2023/01/09 00:33:40;;;;;;;14.57;7.93;;;21.10;99.90;;;;;;5033650;28;20354;-48
2023/01/09 00:36:06;;;;;;;10.57;7.80;;;21.10;99.90;;;;;;5033686;28;20056;-48
2023/01/09 00:38:32;;;;;;;11.07;7.40;;;21.20;99.90;;;;;;5033550;28;20057;-47
2023/01/09 00:40:59;;;;;;;11.52;8.10;;;21.10;99.90;;;;;;5033238;28;20440;-48
2023/01/09 00:43:31;;;;;;;13.32;8.48;;;21.10;99.90;;;;;;5033436;28;20026;-48
2023/01/09 00:45:58;;;;;;;13.55;8.60;;;21.10;99.90;;;;;;5033312;28;20031;-48
2023/01/09 00:48:26;;;;;;;12.85;8.45;;;21.10;99.90;;;;;;5033299;28;20021;-48
2023/01/09 00:50:58;;;;;;;11.52;7.45;;;21.10;99.90;;;;;;5033175;28;20030;-48
2023/01/09 00:53:27;;;;;;;12.68;7.75;;;21.10;99.90;;;;;;5033086;28;20067;-48
2023/01/09 00:55:56;;;;;;;13.35;7.93;;;21.10;99.90;;;;;;5032155;28;20087;-47
2023/01/09 00:58:22;;;;;;;12.85;8.35;;;21.10;99.90;;;;;;5033089;28;20021;-47
2023/01/09 01:00:48;;;;;;;9.02;6.80;;;21.10;99.90;;;;;;5033519;28;20064;-47
2023/01/09 01:03:14;;;;;;;13.13;8.23;;;21.10;99.90;;;;;;5033142;28;20026;-47
2023/01/09 01:08:41;;;;;;;12.68;8.57;;;21.10;99.90;;;;;;4972039;28;20034;-48
2023/01/09 01:11:09;;;;;;;10.70;7.35;;;21.10;99.90;;;;;;5020333;28;20508;-48
2023/01/09 01:13:36;;;;;;;11.13;7.50;;;21.10;99.90;;;;;;5032974;28;20025;-48
2023/01/09 01:16:07;;;;;;;14.70;9.07;;;21.10;99.90;;;;;;5032880;28;20017;-47
2023/01/09 01:18:32;;;;;;;12.93;7.95;;;21.00;99.90;;;;;;5032943;28;20021;-47
2023/01/09 01:20:58;;;;;;;13.25;7.95;;;21.00;99.90;;;;;;5032646;28;20107;-47
2023/01/09 01:23:25;;;;;;;13.32;7.97;;;21.00;99.90;;;;;;5032745;28;20104;-47
2023/01/09 01:25:52;;;;;;;12.95;8.10;;;21.10;99.90;;;;;;5032590;28;20017;-48
2023/01/09 01:28:18;;;;;;;11.70;8.52;;;21.00;99.90;;;;;;5032546;28;20025;-48
2023/01/09 01:30:44;;;;;;;13.02;9.00;;;21.00;99.90;;;;;;5032519;28;20104;-48
2023/01/09 01:33:10;;;;;;;12.45;8.82;;;21.00;99.90;;;;;;5032500;28;20052;-47
2023/01/09 01:35:37;;;;;;;12.10;8.05;;;21.00;99.90;;;;;;5032831;28;20025;-47
2023/01/09 01:38:03;;;;;;;13.77;8.32;;;21.00;99.90;;;;;;5032349;28;20045;-47
2023/01/09 01:40:29;;;;;;;12.32;8.10;;;21.00;99.90;;;;;;5032196;28;20033;-48
2023/01/09 01:42:55;;;;;;;11.27;8.45;;;21.00;99.90;;;;;;5032419;28;20018;-48
2023/01/09 01:45:27;;;;;;;14.00;9.30;;;21.00;99.90;;;;;;5032387;28;20026;-48
2023/01/09 01:47:55;;;;;;;12.70;8.15;;;21.00;99.90;;;;;;5032597;28;20108;-48
2023/01/09 01:50:57;;;;;;;12.63;8.38;;;21.00;99.90;;;;;;5032710;28;20021;-48
2023/01/09 01:53:32;;;;;;;14.93;9.10;;;21.00;99.90;;;;;;5032086;28;20504;-48
2023/01/09 01:56:01;;;;;;;12.70;8.43;;;20.90;99.90;;;;;;5032330;28;20478;-48
2023/01/09 01:58:27;;;;;;;13.60;9.43;;;21.00;99.90;;;;;;5032295;28;20026;-54
2023/01/09 02:00:52;;;;;;;12.80;8.43;;;20.90;99.90;;;;;;5032875;28;20160;-47
2023/01/09 02:03:24;;;;;;;11.75;8.10;;;20.90;99.90;;;;;;5032086;28;20068;-48
2023/01/09 02:05:49;;;;;;;15.40;9.07;;;20.90;99.90;;;;;;5032130;28;20032;-48
2023/01/09 02:08:16;;;;;;;14.20;9.68;;;20.90;99.90;;;;;;5034885;28;20104;-48
2023/01/09 02:10:43;;;;;;;12.05;8.27;;;20.90;99.90;;;;;;5036215;28;20057;-48
2023/01/09 02:13:09;;;;;;;13.23;8.65;;;20.90;99.90;;;;;;5036427;28;20028;-48
2023/01/09 02:15:56;;;;;;;15.02;9.95;;;20.90;99.90;;;;;;5036053;28;20112;-47
2023/01/09 02:18:52;;;;;;;15.80;9.73;;;20.90;99.90;;;;;;5036098;28;20026;-48
2023/01/09 02:21:33;;;;;;;15.02;9.15;;;20.90;99.90;;;;;;5036062;28;20044;-48
2023/01/09 02:23:59;;;;;;;15.20;10.02;;;20.90;99.90;;;;;;5035931;28;20049;-47
2023/01/09 02:26:34;;;;;;;13.60;9.00;;;20.90;99.90;;;;;;5035882;28;20419;-48
2023/01/09 02:29:18;;;;;;;14.27;9.38;;;20.90;99.90;;;;;;5035902;28;20022;-48
2023/01/09 02:32:17;;;;;;;17.15;9.70;;;20.90;99.90;;;;;;5035886;28;20026;-48
2023/01/09 02:34:48;;;;;;;13.52;9.48;;;20.90;99.90;;;;;;5035769;28;20025;-48
2023/01/09 02:37:30;;;;;;;12.38;8.88;;;20.90;99.90;;;;;;5035721;28;20045;-48
2023/01/09 02:40:23;;;;;;;12.00;7.95;;;20.90;99.90;;;;;;5035634;28;20133;-48
2023/01/09 02:42:50;;;;;;;13.23;9.48;;;20.90;99.90;;;;;;5035298;28;20033;-48
2023/01/09 02:45:16;;;;;;;11.50;8.75;;;20.90;99.90;;;;;;5035679;28;20035;-48
2023/01/09 02:47:44;;;;;;;13.30;8.60;;;20.90;99.90;;;;;;5035624;28;20025;-48
2023/01/09 02:50:26;;;;;;;12.02;8.77;;;20.80;99.90;;;;;;5035821;28;20474;-48
2023/01/09 02:53:09;;;;;;;12.50;8.57;;;20.90;99.90;;;;;;5035485;28;20032;-48
2023/01/09 02:55:52;;;;;;;13.77;9.43;;;20.90;99.90;;;;;;5035465;28;20389;-48
2023/01/09 02:58:18;;;;;;;12.10;8.68;;;20.90;99.90;;;;;;5035372;28;20017;-48
2023/01/09 03:01:43;;;;;;;13.00;8.48;;;20.80;99.90;;;;;;5035629;28;20048;-48
2023/01/09 03:04:46;;;;;;;12.07;8.30;;;20.90;99.90;;;;;;5013480;28;20026;-47
2023/01/09 03:07:32;;;;;;;11.02;8.00;;;20.80;99.90;;;;;;5003360;28;20395;-48
2023/01/09 03:10:10;;;;;;;12.32;8.25;;;20.80;99.90;;;;;;5034869;28;20026;-47
2023/01/09 03:12:38;;;;;;;13.13;8.57;;;20.80;99.90;;;;;;5035214;28;20079;-48
2023/01/09 03:15:08;;;;;;;11.20;7.95;;;20.80;99.90;;;;;;5035085;28;20032;-49
2023/01/09 03:17:38;;;;;;;9.75;7.53;;;20.80;99.90;;;;;;5035079;28;20923;-48
2023/01/09 03:20:07;;;;;;;10.85;7.70;;;20.80;99.90;;;;;;5033943;28;20049;-48
2023/01/09 03:22:33;;;;;;;11.02;7.45;;;20.80;99.90;;;;;;5034864;28;20029;-48
2023/01/09 03:24:59;;;;;;;11.48;7.93;;;20.80;99.90;;;;;;5034820;28;20028;-48
2023/01/09 03:27:25;;;;;;;10.73;7.63;;;20.80;99.90;;;;;;5034844;28;20370;-48
2023/01/09 03:29:52;;;;;;;11.35;7.57;;;20.80;99.90;;;;;;5034768;28;20053;-48
2023/01/09 03:32:18;;;;;;;10.00;7.85;;;20.80;99.90;;;;;;5033396;28;20033;-47
2023/01/09 03:34:44;;;;;;;13.73;8.18;;;20.80;99.90;;;;;;5034934;28;20536;-48
2023/01/09 03:37:10;;;;;;;10.52;7.10;;;20.80;99.90;;;;;;5034313;28;20033;-48
2023/01/09 03:39:36;;;;;;;11.07;7.10;;;20.80;99.90;;;;;;5034527;28;20040;-48
2023/01/09 03:42:02;;;;;;;11.88;7.13;;;20.80;99.90;;;;;;5033311;28;20116;-47
2023/01/09 03:44:27;;;;;;;11.25;7.68;;;20.80;99.90;;;;;;5034514;28;20492;-47
2023/01/09 03:46:53;;;;;;;10.75;7.55;;;20.80;99.90;;;;;;5034653;28;20032;-47
2023/01/09 03:49:20;;;;;;;12.13;7.57;;;20.80;99.90;;;;;;5049760;28;20163;-47
2023/01/09 03:51:46;;;;;;;11.25;7.07;;;20.80;99.90;;;;;;5033300;28;20049;-47
2023/01/09 03:54:12;;;;;;;10.70;7.95;;;20.80;99.90;;;;;;5034653;28;20496;-46
2023/01/09 03:56:37;;;;;;;12.02;7.10;;;20.70;99.90;;;;;;5034199;28;20021;-47
2023/01/09 03:59:06;;;;;;;9.32;6.78;;;20.70;99.90;;;;;;5034259;28;20053;-47
2023/01/09 04:01:32;;;;;;;9.88;6.95;;;20.80;99.90;;;;;;5045538;23;20073;-52
2023/01/09 04:03:58;;;;;;;10.60;7.10;;;20.70;99.90;;;;;;5034242;28;20060;-52
2023/01/09 04:06:23;;;;;;;8.98;6.63;;;20.70;99.90;;;;;;5034233;28;20121;-52
2023/01/09 04:08:49;;;;;;;11.70;7.63;;;20.70;99.90;;;;;;5034255;28;20458;-52
2023/01/09 04:11:16;;;;;;;8.63;6.80;;;20.70;99.90;;;;;;5034426;28;20029;-52
2023/01/09 04:13:43;;;;;;;12.63;7.38;;;20.70;99.90;;;;;;5034201;28;20022;-52
2023/01/09 04:16:09;;;;;;;9.30;6.80;;;20.70;99.90;;;;;;5032706;28;20025;-52
2023/01/09 04:18:35;;;;;;;9.52;6.65;;;20.70;99.90;;;;;;5033935;28;20259;-51
2023/01/09 04:21:01;;;;;;;9.70;6.63;;;20.70;99.90;;;;;;5033714;28;20083;-52
2023/01/09 04:23:26;;;;;;;9.30;7.07;;;20.70;99.90;;;;;;5033780;28;20403;-52
2023/01/09 04:25:52;;;;;;;9.82;6.75;;;20.70;99.90;;;;;;5033752;28;20025;-52
2023/01/09 04:28:18;;;;;;;9.57;6.28;;;20.70;99.90;;;;;;5033680;28;20393;-52
2023/01/09 04:30:44;;;;;;;8.20;6.13;;;20.70;99.90;;;;;;5033635;28;20359;-52
2023/01/09 04:33:09;;;;;;;8.73;6.22;;;20.70;99.90;;;;;;5033450;28;20474;-52
2023/01/09 04:35:35;;;;;;;11.63;6.53;;;20.70;99.90;;;;;;5033418;28;20029;-52
2023/01/09 04:38:01;;;;;;;10.80;6.97;;;20.70;99.90;;;;;;5033463;28;20052;-52
2023/01/09 04:40:27;;;;;;;12.07;7.82;;;20.70;99.90;;;;;;5033474;28;20033;-52
2023/01/09 04:42:53;;;;;;;9.50;6.18;;;20.70;99.90;;;;;;5033493;28;20167;-52
2023/01/09 04:45:18;;;;;;;10.23;6.82;;;20.70;99.90;;;;;;5033503;28;20030;-52
2023/01/09 04:47:44;;;;;;;9.27;6.00;;;20.70;99.90;;;;;;5033369;28;20148;-52
2023/01/09 04:50:11;;;;;;;9.52;6.60;;;20.70;99.90;;;;;;5033193;28;20036;-52
2023/01/09 04:52:37;;;;;;;9.77;6.13;;;20.70;99.90;;;;;;5033229;28;20022;-52
2023/01/09 04:55:04;;;;;;;9.43;6.00;;;20.70;99.90;;;;;;5033203;28;20032;-52
2023/01/09 04:57:30;;;;;;;7.15;5.70;;;20.70;99.90;;;;;;5033174;28;20026;-52
2023/01/09 04:59:55;;;;;;;10.07;6.75;;;20.70;99.90;;;;;;5033506;28;20091;-52
2023/01/09 05:02:21;;;;;;;9.57;6.05;;;20.60;99.90;;;;;;5033547;28;20053;-52
2023/01/09 05:04:47;;;;;;;8.50;5.68;;;20.70;99.90;;;;;;5033236;28;20040;-52
2023/01/09 05:07:13;;;;;;;9.23;6.03;;;20.70;99.90;;;;;;5032956;28;20026;-52
2023/01/09 05:09:39;;;;;;;8.77;5.75;;;20.70;99.90;;;;;;5032886;28;20075;-52
2023/01/09 05:12:05;;;;;;;9.43;5.78;;;20.70;99.90;;;;;;5032887;28;20025;-52
2023/01/09 05:14:30;;;;;;;8.88;5.88;;;20.70;99.90;;;;;;5033026;28;20112;-52
2023/01/09 05:16:56;;;;;;;8.63;5.82;;;20.70;99.90;;;;;;5032758;28;20470;-52
2023/01/09 05:19:22;;;;;;;10.63;6.80;;;20.70;99.90;;;;;;5031400;28;20026;-52
2023/01/09 05:21:48;;;;;;;9.27;6.07;;;20.60;99.90;;;;;;5033099;28;20385;-52
2023/01/09 05:24:14;;;;;;;9.50;6.60;;;20.70;99.90;;;;;;5032723;28;20383;-52
2023/01/09 05:26:40;;;;;;;8.73;5.57;;;20.70;99.90;;;;;;5032707;28;20037;-52
2023/01/09 05:29:05;;;;;;;7.30;5.13;;;20.60;99.90;;;;;;5032429;28;20417;-52
2023/01/09 05:31:31;;;;;;;9.32;5.82;;;20.60;99.90;;;;;;5032604;28;20493;-52
2023/01/09 05:33:59;;;;;;;8.52;5.35;;;20.60;99.90;;;;;;5032458;28;20033;-52
2023/01/09 05:36:25;;;;;;;8.52;6.03;;;20.60;99.90;;;;;;5032522;28;20029;-52
2023/01/09 05:38:51;;;;;;;7.47;5.65;;;20.60;99.90;;;;;;5032720;28;20021;-52
2023/01/09 05:41:16;;;;;;;8.13;6.43;;;20.60;99.90;;;;;;5032506;28;20523;-52
2023/01/09 05:43:42;;;;;;;8.18;6.25;;;20.60;99.90;;;;;;5032031;28;20556;-52
2023/01/09 05:46:08;;;;;;;8.95;6.40;;;20.60;99.90;;;;;;5031229;28;20039;-52
2023/01/09 05:48:34;;;;;;;7.82;5.70;;;20.60;99.90;;;;;;5031098;28;20056;-52
2023/01/09 05:50:59;;;;;;;7.78;6.13;;;20.60;99.90;;;;;;5032411;28;20029;-52
2023/01/09 05:53:25;;;;;;;7.18;5.43;;;20.60;99.90;;;;;;5032270;28;20115;-52
2023/01/09 05:55:51;;;;;;;6.53;5.18;;;20.60;99.90;;;;;;5032493;28;20057;-52
2023/01/09 05:58:16;;;;;;;10.18;6.45;;;20.60;99.90;;;;;;5032276;28;20032;-52
2023/01/09 06:00:42;;;;;;;8.02;5.93;;;20.50;99.90;;;;;;5031999;28;20060;-53
2023/01/09 06:03:08;;;;;;;8.98;5.80;;;20.60;99.90;;;;;;5032109;28;20026;-53
2023/01/09 06:05:34;;;;;;;7.43;5.13;;;20.60;99.90;;;;;;5032186;28;20028;-52
2023/01/09 06:07:59;;;;;;;7.68;5.30;;;20.60;99.90;;;;;;5032168;28;20033;-53
2023/01/09 06:10:25;;;;;;;8.98;5.90;;;20.50;99.90;;;;;;5032254;28;20021;-52
2023/01/09 06:12:53;;;;;;;9.30;5.82;;;20.60;99.90;;;;;;5032435;28;20473;-52
2023/01/09 06:15:19;;;;;;;;;;;20.50;99.90;;;;;;5032784;28;20021;-53
2023/01/09 06:17:45;;;;;;;8.77;5.72;;;20.50;99.90;;;;;;5031973;28;19909;-52
2023/01/09 06:20:11;;;;;;;8.07;5.78;;;20.50;99.90;;;;;;5031911;28;20034;-52
2023/01/09 06:22:37;;;;;;;7.00;5.40;;;20.50;99.90;;;;;;5032005;28;20025;-52
2023/01/09 06:25:03;;;;;;;7.57;5.63;;;20.50;99.90;;;;;;5032118;28;20109;-52
2023/01/09 06:27:29;;;;;;;8.63;5.40;;;20.50;99.90;;;;;;5032008;28;20109;-52
2023/01/09 06:29:54;;;;;;;8.38;5.55;;;20.50;99.90;;;;;;5032002;28;20026;-51
2023/01/09 06:32:20;;;;;;;8.63;5.50;;;20.50;99.90;;;;;;5032200;28;20572;-52
2023/01/09 06:34:46;;;;;;;7.95;5.47;;;20.50;99.90;;;;;;5031989;28;20057;-52
2023/01/09 06:37:12;;;;;;;9.35;5.97;;;20.50;99.90;;;;;;5031955;28;20032;-52
2023/01/09 06:39:37;;;;;;;6.95;4.97;;;20.50;99.90;;;;;;5031754;28;20381;-52
2023/01/09 06:42:03;;;;;;;10.05;6.63;;;20.50;99.90;;;;;;5031703;28;20053;-50
2023/01/09 06:44:29;;;;;;;9.15;5.93;;;20.50;99.90;;;;;;5031926;28;20025;-49
2023/01/09 06:46:55;;;;;;;6.97;5.15;;;20.50;99.90;;;;;;5031883;28;20433;-49
2023/01/09 06:49:22;;;;;;;8.43;5.32;;;20.50;99.90;;;;;;5031940;28;20022;-49
2023/01/09 06:51:49;;;;;;;6.80;5.15;;;20.50;99.90;;;;;;5031750;28;20163;-52
2023/01/09 06:54:16;;;;;;;7.43;4.90;;;20.50;99.90;;;;;;5034237;28;20489;-51
2023/01/09 06:56:42;;;;;;;7.40;5.57;;;20.50;99.90;;;;;;5035433;28;20037;-52
2023/01/09 06:59:08;;;;;;;8.90;5.15;;;20.50;99.90;;;;;;5035337;28;20029;-52
2023/01/09 07:01:34;;;;;;;6.07;4.68;;;20.50;99.90;;;;;;5035314;28;20049;-52
2023/01/09 07:03:59;;;;;;;10.85;5.45;;;20.40;99.90;;;;;;5035141;28;20053;-52
2023/01/09 07:06:25;;;;;;;11.25;5.72;;;20.50;99.90;;;;;;5034212;28;20080;-51
2023/01/09 07:08:51;;;;;;;8.77;6.13;;;20.40;99.90;;;;;;5035408;28;20473;-51
2023/01/09 07:11:17;;;;;;;8.57;5.82;;;20.40;99.90;;;;;;5035118;28;20105;-52
2023/01/09 07:13:43;;;;;;;7.85;5.65;;;20.50;99.90;;;;;;5034009;28;20043;-51
2023/01/09 07:16:09;;;;;;;7.18;5.25;;;20.40;99.90;;;;;;5034984;28;20073;-52
2023/01/09 07:18:35;;;;;;;8.77;5.93;;;20.50;99.90;;;;;;5034769;28;20048;-52
2023/01/09 07:21:01;;;;;;;7.50;5.27;;;20.50;99.90;;;;;;5034997;28;20052;-51
2023/01/09 07:23:27;;;;;;;6.70;4.95;;;20.50;99.90;;;;;;5034992;28;20083;-52
2023/01/09 07:25:53;;;;;;;8.45;4.70;;;20.40;99.90;;;;;;5035179;28;20105;-52
2023/01/09 07:28:19;;;;;;;18.00;5.10;;;20.40;99.90;;;;;;5034761;28;20096;-52
2023/01/09 07:30:44;;;;;;;7.65;5.07;;;20.40;99.90;;;;;;5034634;28;20112;-52
2023/01/09 07:33:10;;;;;;;7.50;4.85;;;20.40;99.90;;;;;;5033403;28;20026;-52
2023/01/09 07:35:36;;;;;;;8.35;5.18;;;20.40;99.90;;;;;;5033256;28;20032;-52
2023/01/09 07:38:02;;;;;;;8.07;4.43;;;20.40;99.90;;;;;;5034560;28;20025;-51
2023/01/09 07:40:27;;;;;;;6.55;4.40;;;20.40;99.90;;;;;;5034563;28;20056;-52
2023/01/09 07:42:53;;;;;;;7.63;4.82;;;20.50;99.90;;;;;;5034869;28;20017;-52
2023/01/09 07:45:19;;;;;;;6.47;4.82;;;20.40;99.90;;;;;;5034423;28;20025;-52
2023/01/09 07:47:45;;;;;;;10.00;5.28;;;20.40;99.90;;;;;;5034533;28;20022;-52
2023/01/09 07:50:11;;;;;;;8.90;5.95;;;20.40;99.90;;;;;;5034426;28;20103;-52
2023/01/09 07:52:36;;;;;;;8.55;5.65;;;20.40;99.90;;;;;;5032912;28;20052;-52
2023/01/09 07:55:02;;;;;;;6.68;4.60;;;20.50;99.90;;;;;;5034148;28;20060;-52
2023/01/09 07:57:29;;;;;;;6.68;4.57;;;20.40;99.90;;;;;;5034137;28;20021;-53
2023/01/09 07:59:55;;;;;;;7.97;5.20;;;20.50;99.90;;;;;;5034214;28;20046;-50
2023/01/09 08:02:21;;;;;;;6.22;4.57;;;20.40;99.90;;;;;;5034134;28;20151;-54
2023/01/09 08:04:47;;;;;;;8.07;5.22;;;20.50;99.90;;;;;;5032211;28;20057;-52
2023/01/09 08:07:13;;;;;;;8.85;4.57;;;20.50;99.90;;;;;;5034093;28;20056;-50
2023/01/09 08:09:38;;;;;;;6.00;4.72;;;20.50;99.90;;;;;;5033921;28;20448;-50
2023/01/09 08:12:04;;;;;;;8.50;5.20;;;20.50;99.90;;;;;;5033990;28;20058;-50
2023/01/09 08:14:30;;;;;;;6.80;4.72;;;20.50;99.90;;;;;;5033964;28;20032;-50
2023/01/09 08:16:56;;;;;;;6.82;4.60;;;20.50;99.90;;;;;;5034035;28;20026;-50
2023/01/09 08:19:22;;;;;;;8.70;5.50;;;20.50;99.90;;;;;;5033672;28;20440;-50
2023/01/09 08:21:48;;;;;;;9.50;5.60;;;20.60;99.90;;;;;;5033714;28;20029;-50
2023/01/09 08:24:14;;;;;;;7.00;4.55;;;20.60;99.90;;;;;;5033736;28;20032;-51
2023/01/09 08:26:40;;;;;;;6.65;4.95;;;20.60;99.90;;;;;;5032199;28;20116;-50
2023/01/09 08:29:06;;;;;;;7.88;4.78;;;20.60;99.90;;;;;;5033331;28;20045;-51
2023/01/09 08:31:32;;;;;;;7.05;4.85;;;20.60;99.90;;;;;;5033444;28;20025;-50
2023/01/09 08:33:57;;;;;;;7.80;5.22;;;20.60;99.90;;;;;;5033679;28;20022;-51
2023/01/09 08:36:23;;;;;;;6.95;4.72;;;20.60;99.90;;;;;;5033477;28;20021;-50
2023/01/09 08:38:49;;;;;;;8.20;4.72;;;20.60;99.90;;;;;;5033478;28;20030;-51
2023/01/09 08:49:27;;;;;;;8.38;4.63;;;20.70;99.90;;;;;;5033771;28;20420;-51
2023/01/09 08:51:53;;;;;;;7.03;4.50;;;20.70;99.90;;;;;;5033269;28;20051;-51
2023/01/09 08:54:19;;;;;;;6.28;4.18;;;20.70;99.90;;;;;;5033087;28;20028;-51
2023/01/09 08:56:45;;;;;;;7.82;4.55;;;20.80;99.90;;;;;;5031752;28;20542;-51
2023/01/09 08:59:10;;;;;;;8.43;4.40;;;20.80;99.90;;;;;;5033042;28;20079;-51
2023/01/09 09:01:36;;;;;;;7.40;4.60;;;20.80;99.90;;;;;;5032785;28;20172;-51
2023/01/09 09:04:04;;;;;;;6.40;4.10;;;20.80;99.90;;;;;;5032935;28;20052;-51
2023/01/09 09:06:30;;;;;;;11.07;4.45;;;20.90;99.90;;;;;;5033278;28;20127;-51
2023/01/09 09:08:56;;;;;;;6.10;4.60;;;20.90;99.90;;;;;;5032906;28;20029;-51
2023/01/09 09:11:22;;;;;;;8.23;5.05;;;20.90;99.90;;;;;;5032843;28;20025;-51
2023/01/09 09:13:48;;;;;;;6.55;4.55;;;20.90;99.90;;;;;;5031571;28;20039;-51
2023/01/09 09:16:13;;;;;;;5.32;4.10;;;20.90;99.90;;;;;;5032271;28;20051;-51
2023/01/09 09:18:39;;;;;;;6.63;4.45;;;20.90;99.90;;;;;;5032296;28;20025;-51
2023/01/09 09:21:05;;;;;;;7.65;4.50;;;20.90;99.90;;;;;;5032640;28;20091;-51
2023/01/09 09:23:31;;;;;;;9.25;4.72;;;20.90;99.90;;;;;;5031749;28;20374;-51
2023/01/09 09:25:56;;;;;;;6.40;4.22;;;20.90;99.90;;;;;;5032469;28;20033;-51
2023/01/09 09:28:22;;;;;;;6.68;5.00;;;21.00;99.90;;;;;;5032555;28;20478;-52
2023/01/09 09:30:48;;;;;;;7.70;5.13;;;20.90;99.90;;;;;;5031329;28;20459;-51
2023/01/09 09:33:13;;;;;;;10.70;6.05;;;20.90;99.90;;;;;;5032619;28;20021;-51
2023/01/09 09:35:39;;;;;;;9.73;5.70;;;21.00;99.90;;;;;;5032566;28;20033;-51
2023/01/09 09:38:05;;;;;;;8.98;5.80;;;21.00;99.90;;;;;;5032407;28;20021;-51
2023/01/09 09:44:41;;;;;;;10.82;6.60;;;20.90;99.90;;;;;;5032635;28;20444;-51
2023/01/09 09:47:25;;;;;;;11.48;7.50;;;21.00;99.90;;;;;;5032297;28;20087;-51
2023/01/09 09:50:00;;;;;;;11.68;6.82;;;21.00;99.90;;;;;;5024771;28;20064;-51
2023/01/09 09:52:52;;;;;;;11.82;6.97;;;21.10;99.90;;;;;;5032136;28;20100;-51
2023/01/09 09:55:26;;;;;;;8.93;6.40;;;21.10;99.90;;;;;;5014216;28;20025;-52
2023/01/09 09:57:53;;;;;;;10.15;6.85;;;21.20;99.90;;;;;;5032168;28;20494;-51
2023/01/09 10:00:22;;;;;;;13.32;8.48;;;21.20;99.90;;;;;;5031896;28;20060;-51
2023/01/09 10:02:54;;;;;;;12.75;8.18;;;21.30;99.90;;;;;;5031987;28;20470;-51
2023/01/09 10:05:30;;;;;;;15.50;8.35;;;21.30;99.90;;;;;;5030737;28;20454;-51
2023/01/09 10:08:12;;;;;;;16.30;8.88;;;21.40;99.90;;;;;;5032067;28;20014;-51
2023/01/09 10:10:46;;;;;;;14.25;8.75;;;21.40;99.90;;;;;;5030720;28;20036;-51
2023/01/09 10:16:10;;;;;;;14.43;8.82;;;21.60;99.90;;;;;;5031341;28;20044;-51
2023/01/09 10:18:51;;;;;;;17.63;9.30;;;21.60;99.90;;;;;;5032081;28;20083;-51
2023/01/09 10:21:36;;;;;;;15.52;8.70;;;21.70;99.90;;;;;;5031845;28;20026;-51
2023/01/09 10:24:31;;;;;;;16.42;9.52;;;21.80;99.90;;;;;;5032208;28;20076;-51
2023/01/09 10:27:06;;;;;;;17.83;9.70;;;21.80;99.90;;;;;;5026976;28;20060;-51
2023/01/09 10:29:45;;;;;;;17.38;10.75;;;21.90;99.90;;;;;;5034967;28;20067;-51
2023/01/09 10:32:45;;;;;;;17.50;10.52;;;22.00;99.90;;;;;;5035828;28;20025;-51
2023/01/09 10:35:22;;;;;;;19.02;10.10;;;22.00;99.90;;;;;;5012362;28;20033;-52
2023/01/09 10:37:52;;;;;;;14.60;10.32;;;22.00;99.90;;;;;;5035763;28;20025;-51
2023/01/09 10:40:34;;;;;;;19.45;10.68;;;22.10;99.90;;;;;;5035498;28;20131;-51
2023/01/09 10:43:19;;;;;;;16.05;10.77;;;22.20;99.90;;;;;;5035697;28;20105;-52
2023/01/09 10:45:53;;;;;;;17.40;10.38;;;22.20;99.90;;;;;;5035707;28;20441;-51
2023/01/09 10:48:37;;;;;;;17.70;11.15;;;22.30;99.90;;;;;;5035569;28;20029;-51
2023/01/09 10:51:17;;;;;;;18.63;11.45;;;22.40;99.90;;;;;;5035749;28;20024;-51
2023/01/09 10:53:48;;;;;;;17.75;10.50;;;22.30;99.90;;;;;;5035377;28;20447;-51
2023/01/09 10:56:27;;;;;;;19.85;12.40;;;22.40;99.90;;;;;;5035465;28;20026;-51
2023/01/09 10:58:54;;;;;;;18.63;11.57;;;22.40;99.90;;;;;;5035157;28;20101;-51
2023/01/09 11:01:26;;;;;;;18.25;11.75;;;22.40;99.90;;;;;;5035093;28;20046;-51
2023/01/09 11:03:52;;;;;;;18.65;12.32;;;22.40;99.90;;;;;;5035326;28;20461;-51
2023/01/09 11:06:24;;;;;;;20.33;12.13;;;22.40;99.90;;;;;;5035020;28;20035;-51
2023/01/09 11:08:54;;;;;;;19.08;11.27;;;22.40;99.90;;;;;;5034822;28;20488;-51
2023/01/09 11:11:40;;;;;;;20.45;12.52;;;22.40;99.90;;;;;;5033548;28;20374;-51
2023/01/09 11:14:36;;;;;;;18.15;12.13;;;22.40;99.90;;;;;;5035317;28;20024;-51
2023/01/09 11:17:03;;;;;;;21.27;13.57;;;22.40;99.90;;;;;;5022483;28;20044;-51
2023/01/09 11:19:31;;;;;;;18.77;11.68;;;22.40;99.90;;;;;;5033613;28;20449;-52
2023/01/09 11:22:16;;;;;;;18.67;12.18;;;22.30;99.90;;;;;;5034782;28;20120;-51
2023/01/09 11:24:42;;;;;;;20.10;12.30;;;22.30;99.90;;;;;;5034769;28;20029;-52
2023/01/09 11:27:23;;;;;;;20.30;12.70;;;22.30;99.90;;;;;;5035097;28;20025;-52
2023/01/09 11:30:08;;;;;;;24.13;12.25;;;22.30;99.90;;;;;;5034880;28;20022;-51
2023/01/09 11:32:34;;;;;;;18.23;11.43;;;22.20;99.90;;;;;;5034918;28;20109;-51
2023/01/09 11:35:03;;;;;;;21.13;11.63;;;22.20;99.90;;;;;;5033438;28;20013;-51
2023/01/09 11:37:30;;;;;;;19.13;11.88;;;22.20;99.90;;;;;;5034581;28;20092;-51
2023/01/09 11:40:00;;;;;;;18.98;12.18;;;22.20;99.90;;;;;;5033284;28;20481;-51
2023/01/09 11:45:23;;;;;;;19.58;11.48;;;22.30;99.90;;;;;;5034687;28;20120;-52
2023/01/09 11:47:48;;;;;;;22.83;13.27;;;22.30;99.90;;;;;;5034385;28;20105;-51
2023/01/09 11:50:24;;;;;;;21.35;12.48;;;22.30;99.90;;;;;;5034421;28;20029;-52
2023/01/09 11:53:13;;;;;;;19.05;11.77;;;22.30;99.90;;;;;;5034265;28;20438;-51
2023/01/09 11:55:40;;;;;;;19.35;12.38;;;22.30;99.90;;;;;;5034549;28;20025;-51
2023/01/09 11:58:19;;;;;;;18.80;11.75;;;22.40;99.90;;;;;;5034370;28;20022;-51
2023/01/09 12:01:13;;;;;;;19.80;11.57;;;22.40;99.90;;;;;;5034085;28;20083;-51
2023/01/09 12:04:16;;;;;;;18.63;11.18;;;22.40;99.90;;;;;;5034444;28;20030;-51
2023/01/09 12:07:19;;;;;;;17.83;11.10;;;22.40;99.90;;;;;;5034073;28;20025;-52
2023/01/09 12:10:14;;;;;;;18.25;11.82;;;22.30;99.90;;;;;;5033896;28;20026;-51
2023/01/09 12:13:05;;;;;;;24.30;11.35;;;22.30;99.90;;;;;;5034186;28;20505;-51
2023/01/09 12:15:50;;;;;;;21.48;12.40;;;22.30;99.90;;;;;;5033996;28;20029;-52
2023/01/09 12:18:39;;;;;;;17.63;11.10;;;22.30;99.90;;;;;;5033922;28;20060;-52
2023/01/09 12:21:14;;;;;;;19.17;11.75;;;22.30;99.90;;;;;;5033760;28;20037;-52
2023/01/09 12:23:54;;;;;;;17.40;10.90;;;22.30;99.90;;;;;;5033874;28;20591;-51
2023/01/09 12:26:27;;;;;;;18.63;11.68;;;22.30;99.90;;;;;;5033617;28;20067;-51
2023/01/09 12:29:01;;;;;;;16.60;10.45;;;22.30;99.90;;;;;;5033663;28;20100;-51
2023/01/09 12:31:30;;;;;;;17.50;11.07;;;22.20;99.90;;;;;;5033603;28;20021;-52
2023/01/09 12:34:27;;;;;;;17.45;11.10;;;22.30;99.90;;;;;;5033517;28;20034;-51
2023/01/09 12:37:44;;;;;;;17.35;11.10;;;22.40;99.90;;;;;;5033330;28;20067;-51
2023/01/09 12:40:21;;;;;;;;;;;22.40;99.90;;;;;;5008657;28;20064;-51
2023/01/09 12:42:55;;;;;;;21.20;10.85;;;22.40;99.90;;;;;;5033549;28;20258;-51
2023/01/09 12:45:32;;;;;;;17.23;9.98;;;22.60;99.90;;;;;;5033337;28;20034;-52
2023/01/09 12:48:44;;;;;;;16.30;9.52;;;22.60;99.90;;;;;;5033362;28;20032;-52
2023/01/09 12:51:22;;;;;;;19.98;9.90;;;22.70;99.90;;;;;;5033256;28;20061;-51
2023/01/09 12:53:54;;;;;;;17.20;9.73;;;22.70;99.90;;;;;;5033209;28;20465;-52
2023/01/09 12:56:30;;;;;;;17.35;10.32;;;22.80;99.90;;;;;;5033131;28;20029;-51
2023/01/09 12:59:16;;;;;;;19.23;10.18;;;22.90;99.90;;;;;;5033179;28;20486;-51
2023/01/09 13:01:47;;;;;;;19.27;9.45;;;22.90;99.90;;;;;;5033152;28;20045;-52
2023/01/09 13:04:27;;;;;;;21.23;9.90;;;22.90;99.90;;;;;;5033331;28;20429;-51
2023/01/09 13:07:10;;;;;;;15.95;9.13;;;22.90;99.90;;;;;;5032903;28;20033;-51
2023/01/09 13:10:01;;;;;;;16.15;9.52;;;23.00;99.90;;;;;;5033051;28;20084;-51
2023/01/09 13:12:32;;;;;;;20.00;9.48;;;22.90;99.90;;;;;;5032984;28;20026;-51
2023/01/09 13:15:05;;;;;;;18.75;9.93;;;22.90;99.90;;;;;;5032937;28;20025;-51
2023/01/09 13:17:44;;;;;;;15.55;9.60;;;22.90;99.90;;;;;;5032645;28;20021;-51
2023/01/09 13:20:36;;;;;;;20.75;10.15;;;22.90;99.90;;;;;;5032838;28;20537;-51